sensor_id;sensor_type;location;lat;lon;timestamp;P1;durP1;ratioP1;P2;durP2;ratioP2
5967;SDS011;3010;51.028;4.170;2024-01-11T00:00:02;40.73;;;20.67;;
5967;SDS011;3010;51.028;4.170;2024-01-11T00:02:28;40.40;;;20.70;;
5967;SDS011;3010;51.028;4.170;2024-01-11T00:04:54;35.33;;;20.67;;
5967;SDS011;3010;51.028;4.170;2024-01-11T00:07:21;44.13;;;21.70;;
5967;SDS011;3010;51.028;4.170;2024-01-11T00:09:47;36.33;;;20.63;;
5967;SDS011;3010;51.028;4.170;2024-01-11T00:12:14;37.77;;;20.50;;
5967;SDS011;3010;51.028;4.170;2024-01-11T00:14:41;42.42;;;25.15;;
5967;SDS011;3010;51.028;4.170;2024-01-11T00:17:07;37.30;;;21.50;;
5967;SDS011;3010;51.028;4.170;2024-01-11T00:19:34;37.87;;;21.27;;
5967;SDS011;3010;51.028;4.170;2024-01-11T00:22:00;36.43;;;20.20;;
5967;SDS011;3010;51.028;4.170;2024-01-11T00:24:27;33.47;;;19.00;;
5967;SDS011;3010;51.028;4.170;2024-01-11T00:26:54;37.13;;;17.80;;
5967;SDS011;3010;51.028;4.170;2024-01-11T00:29:20;38.20;;;23.62;;
5967;SDS011;3010;51.028;4.170;2024-01-11T00:31:47;34.47;;;19.80;;
5967;SDS011;3010;51.028;4.170;2024-01-11T00:34:13;33.33;;;18.93;;
5967;SDS011;3010;51.028;4.170;2024-01-11T00:36:40;34.67;;;18.13;;
5967;SDS011;3010;51.028;4.170;2024-01-11T00:39:06;29.83;;;18.10;;
5967;SDS011;3010;51.028;4.170;2024-01-11T00:41:33;29.40;;;17.47;;
5967;SDS011;3010;51.028;4.170;2024-01-11T00:44:00;36.23;;;19.00;;
5967;SDS011;3010;51.028;4.170;2024-01-11T00:46:26;29.70;;;16.10;;
5967;SDS011;3010;51.028;4.170;2024-01-11T00:48:53;34.57;;;18.80;;
5967;SDS011;3010;51.028;4.170;2024-01-11T00:51:20;31.13;;;17.73;;
5967;SDS011;3010;51.028;4.170;2024-01-11T00:53:46;31.63;;;18.27;;
5967;SDS011;3010;51.028;4.170;2024-01-11T00:56:18;38.10;;;18.27;;
5967;SDS011;3010;51.028;4.170;2024-01-11T00:58:42;36.85;;;23.50;;
5967;SDS011;3010;51.028;4.170;2024-01-11T01:01:09;36.07;;;19.23;;
5967;SDS011;3010;51.028;4.170;2024-01-11T01:03:35;35.13;;;19.60;;
5967;SDS011;3010;51.028;4.170;2024-01-11T01:06:02;35.15;;;23.08;;
5967;SDS011;3010;51.028;4.170;2024-01-11T01:08:29;33.37;;;19.20;;
5967;SDS011;3010;51.028;4.170;2024-01-11T01:10:55;36.13;;;23.30;;
5967;SDS011;3010;51.028;4.170;2024-01-11T01:13:22;32.53;;;18.57;;
5967;SDS011;3010;51.028;4.170;2024-01-11T01:15:48;33.47;;;17.87;;
5967;SDS011;3010;51.028;4.170;2024-01-11T01:18:15;32.33;;;16.30;;
5967;SDS011;3010;51.028;4.170;2024-01-11T01:20:41;33.77;;;18.17;;
5967;SDS011;3010;51.028;4.170;2024-01-11T01:23:08;30.30;;;16.33;;
5967;SDS011;3010;51.028;4.170;2024-01-11T01:25:35;27.53;;;17.53;;
5967;SDS011;3010;51.028;4.170;2024-01-11T01:28:01;29.33;;;17.53;;
5967;SDS011;3010;51.028;4.170;2024-01-11T01:30:28;34.40;;;17.93;;
5967;SDS011;3010;51.028;4.170;2024-01-11T01:32:54;35.05;;;22.52;;
5967;SDS011;3010;51.028;4.170;2024-01-11T01:35:21;37.17;;;19.53;;
5967;SDS011;3010;51.028;4.170;2024-01-11T01:37:48;33.80;;;22.05;;
5967;SDS011;3010;51.028;4.170;2024-01-11T01:40:14;34.97;;;18.17;;
5967;SDS011;3010;51.028;4.170;2024-01-11T01:42:44;33.20;;;18.23;;
5967;SDS011;3010;51.028;4.170;2024-01-11T01:45:11;32.23;;;18.07;;
5967;SDS011;3010;51.028;4.170;2024-01-11T01:47:41;30.43;;;17.57;;
5967;SDS011;3010;51.028;4.170;2024-01-11T01:50:04;27.23;;;15.80;;
5967;SDS011;3010;51.028;4.170;2024-01-11T01:52:30;31.47;;;17.17;;
5967;SDS011;3010;51.028;4.170;2024-01-11T01:54:57;32.83;;;17.00;;
5967;SDS011;3010;51.028;4.170;2024-01-11T01:57:23;28.93;;;16.33;;
5967;SDS011;3010;51.028;4.170;2024-01-11T01:59:50;30.97;;;17.50;;
5967;SDS011;3010;51.028;4.170;2024-01-11T02:02:17;30.03;;;16.80;;
5967;SDS011;3010;51.028;4.170;2024-01-11T02:04:43;29.57;;;16.70;;
5967;SDS011;3010;51.028;4.170;2024-01-11T02:07:10;30.73;;;16.97;;
5967;SDS011;3010;51.028;4.170;2024-01-11T02:09:36;38.63;;;23.15;;
5967;SDS011;3010;51.028;4.170;2024-01-11T02:12:03;32.80;;;18.87;;
5967;SDS011;3010;51.028;4.170;2024-01-11T02:14:29;36.17;;;18.00;;
5967;SDS011;3010;51.028;4.170;2024-01-11T02:16:56;27.57;;;16.47;;
5967;SDS011;3010;51.028;4.170;2024-01-11T02:19:23;32.97;;;18.53;;
5967;SDS011;3010;51.028;4.170;2024-01-11T02:21:49;33.00;;;17.00;;
5967;SDS011;3010;51.028;4.170;2024-01-11T02:24:16;38.23;;;18.90;;
5967;SDS011;3010;51.028;4.170;2024-01-11T02:27:02;31.03;;;16.47;;
5967;SDS011;3010;51.028;4.170;2024-01-11T02:29:28;31.07;;;16.83;;
5967;SDS011;3010;51.028;4.170;2024-01-11T02:31:54;33.03;;;18.40;;
5967;SDS011;3010;51.028;4.170;2024-01-11T02:34:21;33.63;;;19.00;;
5967;SDS011;3010;51.028;4.170;2024-01-11T02:36:47;31.87;;;17.10;;
5967;SDS011;3010;51.028;4.170;2024-01-11T02:39:14;31.10;;;17.33;;
5967;SDS011;3010;51.028;4.170;2024-01-11T02:41:41;36.13;;;23.17;;
5967;SDS011;3010;51.028;4.170;2024-01-11T02:44:07;32.67;;;20.07;;
5967;SDS011;3010;51.028;4.170;2024-01-11T02:46:34;34.93;;;18.27;;
5967;SDS011;3010;51.028;4.170;2024-01-11T02:49:00;30.30;;;17.87;;
5967;SDS011;3010;51.028;4.170;2024-01-11T02:51:27;40.50;;;24.40;;
5967;SDS011;3010;51.028;4.170;2024-01-11T02:53:53;37.23;;;19.77;;
5967;SDS011;3010;51.028;4.170;2024-01-11T02:56:20;34.93;;;19.17;;
5967;SDS011;3010;51.028;4.170;2024-01-11T02:58:47;34.17;;;19.60;;
5967;SDS011;3010;51.028;4.170;2024-01-11T03:01:13;33.17;;;18.27;;
5967;SDS011;3010;51.028;4.170;2024-01-11T03:03:40;33.83;;;18.23;;
5967;SDS011;3010;51.028;4.170;2024-01-11T03:06:06;32.43;;;18.67;;
5967;SDS011;3010;51.028;4.170;2024-01-11T03:08:33;39.90;;;18.77;;
5967;SDS011;3010;51.028;4.170;2024-01-11T03:11:00;33.80;;;19.33;;
5967;SDS011;3010;51.028;4.170;2024-01-11T03:13:26;33.10;;;16.03;;
5967;SDS011;3010;51.028;4.170;2024-01-11T03:15:53;38.27;;;22.57;;
5967;SDS011;3010;51.028;4.170;2024-01-11T03:18:19;36.20;;;18.53;;
5967;SDS011;3010;51.028;4.170;2024-01-11T03:20:46;31.23;;;17.27;;
5967;SDS011;3010;51.028;4.170;2024-01-11T03:23:13;34.77;;;20.30;;
5967;SDS011;3010;51.028;4.170;2024-01-11T03:25:39;35.57;;;18.37;;
5967;SDS011;3010;51.028;4.170;2024-01-11T03:28:06;36.00;;;19.50;;
5967;SDS011;3010;51.028;4.170;2024-01-11T03:30:32;41.08;;;25.08;;
5967;SDS011;3010;51.028;4.170;2024-01-11T03:32:59;33.73;;;20.43;;
5967;SDS011;3010;51.028;4.170;2024-01-11T03:35:25;33.63;;;19.07;;
5967;SDS011;3010;51.028;4.170;2024-01-11T03:37:52;37.70;;;18.93;;
5967;SDS011;3010;51.028;4.170;2024-01-11T03:40:19;32.27;;;18.60;;
5967;SDS011;3010;51.028;4.170;2024-01-11T03:42:45;34.47;;;19.33;;
5967;SDS011;3010;51.028;4.170;2024-01-11T03:45:12;35.67;;;20.13;;
5967;SDS011;3010;51.028;4.170;2024-01-11T03:47:38;50.33;;;23.93;;
5967;SDS011;3010;51.028;4.170;2024-01-11T03:50:05;40.27;;;20.60;;
5967;SDS011;3010;51.028;4.170;2024-01-11T03:52:32;35.83;;;19.33;;
5967;SDS011;3010;51.028;4.170;2024-01-11T03:54:58;34.93;;;18.17;;
5967;SDS011;3010;51.028;4.170;2024-01-11T03:57:25;33.90;;;18.67;;
5967;SDS011;3010;51.028;4.170;2024-01-11T03:59:51;35.70;;;18.63;;
5967;SDS011;3010;51.028;4.170;2024-01-11T04:02:18;32.47;;;18.90;;
5967;SDS011;3010;51.028;4.170;2024-01-11T04:04:45;41.45;;;26.52;;
5967;SDS011;3010;51.028;4.170;2024-01-11T04:07:11;44.45;;;28.60;;
5967;SDS011;3010;51.028;4.170;2024-01-11T04:09:38;41.67;;;23.17;;
5967;SDS011;3010;51.028;4.170;2024-01-11T04:12:04;43.37;;;23.43;;
5967;SDS011;3010;51.028;4.170;2024-01-11T04:14:31;36.37;;;20.60;;
5967;SDS011;3010;51.028;4.170;2024-01-11T04:16:58;42.57;;;19.67;;
5967;SDS011;3010;51.028;4.170;2024-01-11T04:19:24;39.03;;;21.27;;
5967;SDS011;3010;51.028;4.170;2024-01-11T04:21:51;37.80;;;19.93;;
5967;SDS011;3010;51.028;4.170;2024-01-11T04:24:17;37.37;;;20.17;;
5967;SDS011;3010;51.028;4.170;2024-01-11T04:26:44;38.27;;;19.47;;
5967;SDS011;3010;51.028;4.170;2024-01-11T04:29:10;38.20;;;19.27;;
5967;SDS011;3010;51.028;4.170;2024-01-11T04:31:37;34.60;;;19.57;;
5967;SDS011;3010;51.028;4.170;2024-01-11T04:34:04;34.20;;;17.70;;
5967;SDS011;3010;51.028;4.170;2024-01-11T04:36:30;37.40;;;18.43;;
5967;SDS011;3010;51.028;4.170;2024-01-11T04:38:57;34.53;;;18.43;;
5967;SDS011;3010;51.028;4.170;2024-01-11T04:41:23;33.67;;;18.43;;
5967;SDS011;3010;51.028;4.170;2024-01-11T04:43:50;30.17;;;18.40;;
5967;SDS011;3010;51.028;4.170;2024-01-11T04:46:20;31.13;;;18.07;;
5967;SDS011;3010;51.028;4.170;2024-01-11T04:48:46;39.33;;;18.97;;
5967;SDS011;3010;51.028;4.170;2024-01-11T04:51:13;46.53;;;27.98;;
5967;SDS011;3010;51.028;4.170;2024-01-11T04:53:40;41.13;;;21.90;;
5967;SDS011;3010;51.028;4.170;2024-01-11T04:56:06;34.63;;;19.17;;
5967;SDS011;3010;51.028;4.170;2024-01-11T04:58:33;35.37;;;18.43;;
5967;SDS011;3010;51.028;4.170;2024-01-11T05:00:59;39.70;;;20.27;;
5967;SDS011;3010;51.028;4.170;2024-01-11T05:03:26;33.07;;;18.33;;
5967;SDS011;3010;51.028;4.170;2024-01-11T05:05:52;39.80;;;20.20;;
5967;SDS011;3010;51.028;4.170;2024-01-11T05:08:19;37.23;;;19.20;;
5967;SDS011;3010;51.028;4.170;2024-01-11T05:10:46;36.50;;;18.83;;
5967;SDS011;3010;51.028;4.170;2024-01-11T05:13:12;33.77;;;17.90;;
5967;SDS011;3010;51.028;4.170;2024-01-11T05:15:39;37.13;;;18.83;;
5967;SDS011;3010;51.028;4.170;2024-01-11T05:18:05;32.97;;;18.53;;
5967;SDS011;3010;51.028;4.170;2024-01-11T05:20:32;36.57;;;19.03;;
5967;SDS011;3010;51.028;4.170;2024-01-11T05:22:59;39.20;;;19.73;;
5967;SDS011;3010;51.028;4.170;2024-01-11T05:25:25;32.77;;;19.50;;
5967;SDS011;3010;51.028;4.170;2024-01-11T05:27:52;33.73;;;19.33;;
5967;SDS011;3010;51.028;4.170;2024-01-11T05:30:18;38.37;;;19.27;;
5967;SDS011;3010;51.028;4.170;2024-01-11T05:32:45;40.72;;;25.95;;
5967;SDS011;3010;51.028;4.170;2024-01-11T05:35:12;38.27;;;21.30;;
5967;SDS011;3010;51.028;4.170;2024-01-11T05:37:38;37.83;;;19.57;;
5967;SDS011;3010;51.028;4.170;2024-01-11T05:40:05;35.80;;;20.30;;
5967;SDS011;3010;51.028;4.170;2024-01-11T05:42:31;33.10;;;18.80;;
5967;SDS011;3010;51.028;4.170;2024-01-11T05:44:58;36.27;;;18.77;;
5967;SDS011;3010;51.028;4.170;2024-01-11T05:47:25;36.90;;;19.50;;
5967;SDS011;3010;51.028;4.170;2024-01-11T05:49:51;41.07;;;20.63;;
5967;SDS011;3010;51.028;4.170;2024-01-11T05:52:18;35.90;;;18.60;;
5967;SDS011;3010;51.028;4.170;2024-01-11T05:54:44;32.93;;;19.07;;
5967;SDS011;3010;51.028;4.170;2024-01-11T05:57:11;41.73;;;21.40;;
5967;SDS011;3010;51.028;4.170;2024-01-11T05:59:42;36.23;;;19.83;;
5967;SDS011;3010;51.028;4.170;2024-01-11T06:02:04;33.23;;;19.00;;
5967;SDS011;3010;51.028;4.170;2024-01-11T06:04:31;40.80;;;19.60;;
5967;SDS011;3010;51.028;4.170;2024-01-11T06:06:57;35.30;;;21.07;;
5967;SDS011;3010;51.028;4.170;2024-01-11T06:09:24;36.27;;;20.53;;
5967;SDS011;3010;51.028;4.170;2024-01-11T06:11:51;42.50;;;21.17;;
5967;SDS011;3010;51.028;4.170;2024-01-11T06:14:17;44.40;;;22.90;;
5967;SDS011;3010;51.028;4.170;2024-01-11T06:16:44;44.63;;;22.13;;
5967;SDS011;3010;51.028;4.170;2024-01-11T06:19:10;39.73;;;21.13;;
5967;SDS011;3010;51.028;4.170;2024-01-11T06:21:37;45.97;;;21.00;;
5967;SDS011;3010;51.028;4.170;2024-01-11T06:24:03;42.50;;;24.30;;
5967;SDS011;3010;51.028;4.170;2024-01-11T06:26:30;46.03;;;26.97;;
5967;SDS011;3010;51.028;4.170;2024-01-11T06:28:57;60.40;;;30.17;;
5967;SDS011;3010;51.028;4.170;2024-01-11T06:31:23;49.93;;;25.40;;
5967;SDS011;3010;51.028;4.170;2024-01-11T06:33:50;41.20;;;22.17;;
5967;SDS011;3010;51.028;4.170;2024-01-11T06:36:16;42.03;;;20.50;;
5967;SDS011;3010;51.028;4.170;2024-01-11T06:38:43;36.60;;;19.33;;
5967;SDS011;3010;51.028;4.170;2024-01-11T06:41:10;34.30;;;19.23;;
5967;SDS011;3010;51.028;4.170;2024-01-11T06:43:36;34.73;;;19.43;;
5967;SDS011;3010;51.028;4.170;2024-01-11T06:46:03;37.37;;;19.70;;
5967;SDS011;3010;51.028;4.170;2024-01-11T06:48:30;43.15;;;26.77;;
5967;SDS011;3010;51.028;4.170;2024-01-11T06:50:56;40.73;;;23.50;;
5967;SDS011;3010;51.028;4.170;2024-01-11T06:53:23;43.03;;;27.80;;
5967;SDS011;3010;51.028;4.170;2024-01-11T06:55:49;38.37;;;23.23;;
5967;SDS011;3010;51.028;4.170;2024-01-11T06:58:16;46.65;;;29.37;;
5967;SDS011;3010;51.028;4.170;2024-01-11T07:00:42;36.23;;;23.07;;
5967;SDS011;3010;51.028;4.170;2024-01-11T07:03:09;40.70;;;21.67;;
5967;SDS011;3010;51.028;4.170;2024-01-11T07:05:35;40.40;;;20.97;;
5967;SDS011;3010;51.028;4.170;2024-01-11T07:08:02;37.13;;;20.00;;
5967;SDS011;3010;51.028;4.170;2024-01-11T07:10:29;41.73;;;21.07;;
5967;SDS011;3010;51.028;4.170;2024-01-11T07:12:55;37.63;;;20.20;;
5967;SDS011;3010;51.028;4.170;2024-01-11T07:15:22;39.83;;;21.37;;
5967;SDS011;3010;51.028;4.170;2024-01-11T07:17:48;38.10;;;20.13;;
5967;SDS011;3010;51.028;4.170;2024-01-11T07:20:15;36.37;;;21.37;;
5967;SDS011;3010;51.028;4.170;2024-01-11T07:22:42;38.03;;;20.73;;
5967;SDS011;3010;51.028;4.170;2024-01-11T07:25:08;42.67;;;21.60;;
5967;SDS011;3010;51.028;4.170;2024-01-11T07:27:35;50.10;;;29.73;;
5967;SDS011;3010;51.028;4.170;2024-01-11T07:30:01;47.17;;;24.57;;
5967;SDS011;3010;51.028;4.170;2024-01-11T07:32:28;41.63;;;22.53;;
5967;SDS011;3010;51.028;4.170;2024-01-11T07:34:55;47.85;;;29.30;;
5967;SDS011;3010;51.028;4.170;2024-01-11T07:37:21;45.37;;;25.50;;
5967;SDS011;3010;51.028;4.170;2024-01-11T07:39:48;43.07;;;22.37;;
5967;SDS011;3010;51.028;4.170;2024-01-11T07:42:14;38.50;;;22.57;;
5967;SDS011;3010;51.028;4.170;2024-01-11T07:44:41;52.42;;;31.05;;
5967;SDS011;3010;51.028;4.170;2024-01-11T07:47:08;54.92;;;33.10;;
5967;SDS011;3010;51.028;4.170;2024-01-11T07:49:34;46.83;;;25.30;;
5967;SDS011;3010;51.028;4.170;2024-01-11T07:52:01;41.80;;;23.47;;
5967;SDS011;3010;51.028;4.170;2024-01-11T07:54:27;43.57;;;24.23;;
5967;SDS011;3010;51.028;4.170;2024-01-11T07:56:54;53.00;;;23.87;;
5967;SDS011;3010;51.028;4.170;2024-01-11T07:59:21;53.00;;;31.80;;
5967;SDS011;3010;51.028;4.170;2024-01-11T08:01:47;44.50;;;24.83;;
5967;SDS011;3010;51.028;4.170;2024-01-11T08:04:14;50.60;;;32.28;;
5967;SDS011;3010;51.028;4.170;2024-01-11T08:06:40;47.00;;;24.33;;
5967;SDS011;3010;51.028;4.170;2024-01-11T08:09:07;40.07;;;23.63;;
5967;SDS011;3010;51.028;4.170;2024-01-11T08:11:34;45.50;;;24.40;;
5967;SDS011;3010;51.028;4.170;2024-01-11T08:14:00;50.33;;;30.00;;
5967;SDS011;3010;51.028;4.170;2024-01-11T08:16:27;49.00;;;25.97;;
5967;SDS011;3010;51.028;4.170;2024-01-11T08:18:53;49.10;;;23.87;;
5967;SDS011;3010;51.028;4.170;2024-01-11T08:21:20;45.83;;;23.70;;
5967;SDS011;3010;51.028;4.170;2024-01-11T08:23:47;47.27;;;24.37;;
5967;SDS011;3010;51.028;4.170;2024-01-11T08:26:13;44.60;;;23.30;;
5967;SDS011;3010;51.028;4.170;2024-01-11T08:28:40;48.17;;;24.83;;
5967;SDS011;3010;51.028;4.170;2024-01-11T08:31:07;59.43;;;26.73;;
5967;SDS011;3010;51.028;4.170;2024-01-11T08:33:33;45.30;;;21.77;;
5967;SDS011;3010;51.028;4.170;2024-01-11T08:35:59;42.57;;;23.90;;
5967;SDS011;3010;51.028;4.170;2024-01-11T08:38:26;43.00;;;25.20;;
5967;SDS011;3010;51.028;4.170;2024-01-11T08:40:53;52.08;;;30.15;;
5967;SDS011;3010;51.028;4.170;2024-01-11T08:43:19;47.38;;;30.42;;
5967;SDS011;3010;51.028;4.170;2024-01-11T08:45:46;45.75;;;30.42;;
5967;SDS011;3010;51.028;4.170;2024-01-11T08:48:13;44.03;;;24.53;;
5967;SDS011;3010;51.028;4.170;2024-01-11T08:50:39;41.67;;;23.20;;
5967;SDS011;3010;51.028;4.170;2024-01-11T08:53:06;41.47;;;23.57;;
5967;SDS011;3010;51.028;4.170;2024-01-11T08:55:32;45.57;;;22.80;;
5967;SDS011;3010;51.028;4.170;2024-01-11T08:57:59;41.37;;;21.20;;
5967;SDS011;3010;51.028;4.170;2024-01-11T09:00:26;40.70;;;22.30;;
5967;SDS011;3010;51.028;4.170;2024-01-11T09:02:52;37.57;;;21.63;;
5967;SDS011;3010;51.028;4.170;2024-01-11T09:05:19;47.25;;;28.75;;
5967;SDS011;3010;51.028;4.170;2024-01-11T09:07:45;42.53;;;23.67;;
5967;SDS011;3010;51.028;4.170;2024-01-11T09:10:12;47.13;;;28.70;;
5967;SDS011;3010;51.028;4.170;2024-01-11T09:12:38;45.77;;;24.77;;
5967;SDS011;3010;51.028;4.170;2024-01-11T09:15:05;40.03;;;22.37;;
5967;SDS011;3010;51.028;4.170;2024-01-11T09:17:32;40.73;;;20.93;;
5967;SDS011;3010;51.028;4.170;2024-01-11T09:19:58;42.80;;;21.17;;
5967;SDS011;3010;51.028;4.170;2024-01-11T09:22:25;42.03;;;21.07;;
5967;SDS011;3010;51.028;4.170;2024-01-11T09:24:51;43.60;;;22.90;;
5967;SDS011;3010;51.028;4.170;2024-01-11T09:27:18;41.00;;;19.70;;
5967;SDS011;3010;51.028;4.170;2024-01-11T09:29:45;47.57;;;22.17;;
5967;SDS011;3010;51.028;4.170;2024-01-11T09:32:12;46.77;;;23.33;;
5967;SDS011;3010;51.028;4.170;2024-01-11T09:34:38;45.42;;;28.45;;
5967;SDS011;3010;51.028;4.170;2024-01-11T09:37:04;44.23;;;24.20;;
5967;SDS011;3010;51.028;4.170;2024-01-11T09:39:31;40.30;;;23.20;;
5967;SDS011;3010;51.028;4.170;2024-01-11T09:41:58;39.77;;;21.10;;
5967;SDS011;3010;51.028;4.170;2024-01-11T09:44:25;47.88;;;28.20;;
5967;SDS011;3010;51.028;4.170;2024-01-11T09:46:51;44.33;;;25.67;;
5967;SDS011;3010;51.028;4.170;2024-01-11T09:49:17;41.63;;;22.03;;
5967;SDS011;3010;51.028;4.170;2024-01-11T09:51:44;40.13;;;21.80;;
5967;SDS011;3010;51.028;4.170;2024-01-11T09:54:10;46.20;;;28.30;;
5967;SDS011;3010;51.028;4.170;2024-01-11T09:56:37;45.67;;;23.73;;
5967;SDS011;3010;51.028;4.170;2024-01-11T09:59:04;44.73;;;21.87;;
5967;SDS011;3010;51.028;4.170;2024-01-11T10:01:30;36.50;;;20.07;;
5967;SDS011;3010;51.028;4.170;2024-01-11T10:03:57;41.90;;;23.67;;
5967;SDS011;3010;51.028;4.170;2024-01-11T10:06:23;45.37;;;23.00;;
5967;SDS011;3010;51.028;4.170;2024-01-11T10:08:50;39.73;;;22.50;;
5967;SDS011;3010;51.028;4.170;2024-01-11T10:11:17;45.07;;;22.37;;
5967;SDS011;3010;51.028;4.170;2024-01-11T10:13:43;41.43;;;22.73;;
5967;SDS011;3010;51.028;4.170;2024-01-11T10:16:10;42.10;;;22.17;;
5967;SDS011;3010;51.028;4.170;2024-01-11T10:18:36;37.23;;;20.83;;
5967;SDS011;3010;51.028;4.170;2024-01-11T10:21:03;58.28;;;35.78;;
5967;SDS011;3010;51.028;4.170;2024-01-11T10:23:30;50.67;;;29.23;;
5967;SDS011;3010;51.028;4.170;2024-01-11T10:25:56;51.93;;;27.93;;
5967;SDS011;3010;51.028;4.170;2024-01-11T10:28:24;55.47;;;26.60;;
5967;SDS011;3010;51.028;4.170;2024-01-11T10:30:50;51.30;;;26.80;;
5967;SDS011;3010;51.028;4.170;2024-01-11T10:33:17;44.30;;;22.70;;
5967;SDS011;3010;51.028;4.170;2024-01-11T10:35:42;45.70;;;23.43;;
5967;SDS011;3010;51.028;4.170;2024-01-11T10:38:09;36.77;;;22.10;;
5967;SDS011;3010;51.028;4.170;2024-01-11T10:40:36;45.30;;;28.83;;
5967;SDS011;3010;51.028;4.170;2024-01-11T10:43:02;59.80;;;26.10;;
5967;SDS011;3010;51.028;4.170;2024-01-11T10:45:29;44.57;;;25.50;;
5967;SDS011;3010;51.028;4.170;2024-01-11T10:48:01;38.73;;;20.97;;
5967;SDS011;3010;51.028;4.170;2024-01-11T10:50:25;31.50;;;18.00;;
5967;SDS011;3010;51.028;4.170;2024-01-11T10:52:54;41.30;;;23.30;;
5967;SDS011;3010;51.028;4.170;2024-01-11T10:55:18;44.67;;;21.17;;
5967;SDS011;3010;51.028;4.170;2024-01-11T10:57:45;38.97;;;21.07;;
5967;SDS011;3010;51.028;4.170;2024-01-11T11:00:11;42.23;;;23.20;;
5967;SDS011;3010;51.028;4.170;2024-01-11T11:02:38;38.47;;;21.33;;
5967;SDS011;3010;51.028;4.170;2024-01-11T11:05:04;28.27;;;16.57;;
5967;SDS011;3010;51.028;4.170;2024-01-11T11:07:31;39.00;;;19.43;;
5967;SDS011;3010;51.028;4.170;2024-01-11T11:09:57;33.47;;;19.23;;
5967;SDS011;3010;51.028;4.170;2024-01-11T11:12:24;39.27;;;21.57;;
5967;SDS011;3010;51.028;4.170;2024-01-11T11:14:51;42.17;;;26.52;;
5967;SDS011;3010;51.028;4.170;2024-01-11T11:17:17;47.13;;;28.27;;
5967;SDS011;3010;51.028;4.170;2024-01-11T11:19:44;42.30;;;27.33;;
5967;SDS011;3010;51.028;4.170;2024-01-11T11:22:12;40.97;;;24.63;;
5967;SDS011;3010;51.028;4.170;2024-01-11T11:24:37;42.30;;;22.03;;
5967;SDS011;3010;51.028;4.170;2024-01-11T11:27:05;43.77;;;24.50;;
5967;SDS011;3010;51.028;4.170;2024-01-11T11:29:30;41.53;;;23.27;;
5967;SDS011;3010;51.028;4.170;2024-01-11T11:31:57;38.77;;;22.10;;
5967;SDS011;3010;51.028;4.170;2024-01-11T11:37:08;35.53;;;21.33;;
5967;SDS011;3010;51.028;4.170;2024-01-11T11:39:35;40.93;;;21.97;;
5967;SDS011;3010;51.028;4.170;2024-01-11T11:42:01;41.75;;;27.30;;
5967;SDS011;3010;51.028;4.170;2024-01-11T11:44:28;41.17;;;23.27;;
5967;SDS011;3010;51.028;4.170;2024-01-11T11:46:54;39.90;;;26.58;;
5967;SDS011;3010;51.028;4.170;2024-01-11T11:49:21;39.90;;;24.60;;
5967;SDS011;3010;51.028;4.170;2024-01-11T11:51:48;40.73;;;22.53;;
5967;SDS011;3010;51.028;4.170;2024-01-11T11:54:14;49.40;;;28.83;;
5967;SDS011;3010;51.028;4.170;2024-01-11T11:56:41;39.93;;;22.47;;
5967;SDS011;3010;51.028;4.170;2024-01-11T11:59:07;34.57;;;19.93;;
5967;SDS011;3010;51.028;4.170;2024-01-11T12:01:34;46.90;;;21.27;;
5967;SDS011;3010;51.028;4.170;2024-01-11T12:04:01;35.97;;;21.00;;
5967;SDS011;3010;51.028;4.170;2024-01-11T12:06:27;41.77;;;21.77;;
5967;SDS011;3010;51.028;4.170;2024-01-11T12:08:54;32.87;;;20.60;;
5967;SDS011;3010;51.028;4.170;2024-01-11T12:11:21;35.20;;;21.73;;
5967;SDS011;3010;51.028;4.170;2024-01-11T12:13:47;36.90;;;24.63;;
5967;SDS011;3010;51.028;4.170;2024-01-11T12:16:13;36.50;;;20.53;;
5967;SDS011;3010;51.028;4.170;2024-01-11T12:18:40;38.28;;;24.33;;
5967;SDS011;3010;51.028;4.170;2024-01-11T12:21:10;35.67;;;18.67;;
5967;SDS011;3010;51.028;4.170;2024-01-11T12:23:38;33.50;;;18.20;;
5967;SDS011;3010;51.028;4.170;2024-01-11T12:26:03;35.95;;;24.15;;
5967;SDS011;3010;51.028;4.170;2024-01-11T12:28:30;27.83;;;16.60;;
5967;SDS011;3010;51.028;4.170;2024-01-11T12:30:56;33.10;;;21.50;;
5967;SDS011;3010;51.028;4.170;2024-01-11T12:33:23;32.13;;;18.97;;
5967;SDS011;3010;51.028;4.170;2024-01-11T12:35:49;30.77;;;17.33;;
5967;SDS011;3010;51.028;4.170;2024-01-11T12:38:16;35.70;;;19.23;;
5967;SDS011;3010;51.028;4.170;2024-01-11T12:40:42;30.23;;;18.80;;
5967;SDS011;3010;51.028;4.170;2024-01-11T12:43:10;33.30;;;23.83;;
5967;SDS011;3010;51.028;4.170;2024-01-11T12:45:35;41.20;;;24.58;;
5967;SDS011;3010;51.028;4.170;2024-01-11T12:48:02;38.35;;;26.08;;
5967;SDS011;3010;51.028;4.170;2024-01-11T12:50:29;38.33;;;22.33;;
5967;SDS011;3010;51.028;4.170;2024-01-11T12:53:08;37.30;;;25.93;;
5967;SDS011;3010;51.028;4.170;2024-01-11T12:55:36;38.70;;;21.03;;
5967;SDS011;3010;51.028;4.170;2024-01-11T12:58:09;31.30;;;20.40;;
5967;SDS011;3010;51.028;4.170;2024-01-11T13:00:36;30.70;;;18.77;;
5967;SDS011;3010;51.028;4.170;2024-01-11T13:03:02;32.50;;;19.73;;
5967;SDS011;3010;51.028;4.170;2024-01-11T13:05:29;33.87;;;19.70;;
5967;SDS011;3010;51.028;4.170;2024-01-11T13:07:55;32.00;;;19.23;;
5967;SDS011;3010;51.028;4.170;2024-01-11T13:10:22;28.43;;;16.07;;
5967;SDS011;3010;51.028;4.170;2024-01-11T13:12:48;32.50;;;19.17;;
5967;SDS011;3010;51.028;4.170;2024-01-11T13:15:15;36.30;;;23.55;;
5967;SDS011;3010;51.028;4.170;2024-01-11T13:17:41;31.00;;;20.20;;
5967;SDS011;3010;51.028;4.170;2024-01-11T13:20:08;29.73;;;20.40;;
5967;SDS011;3010;51.028;4.170;2024-01-11T13:22:35;28.57;;;16.87;;
5967;SDS011;3010;51.028;4.170;2024-01-11T13:25:01;30.67;;;17.03;;
5967;SDS011;3010;51.028;4.170;2024-01-11T13:27:28;29.40;;;18.30;;
5967;SDS011;3010;51.028;4.170;2024-01-11T13:29:54;33.40;;;18.13;;
5967;SDS011;3010;51.028;4.170;2024-01-11T13:32:21;34.00;;;19.13;;
5967;SDS011;3010;51.028;4.170;2024-01-11T13:34:48;25.13;;;16.23;;
5967;SDS011;3010;51.028;4.170;2024-01-11T13:37:14;18.57;;;10.87;;
5967;SDS011;3010;51.028;4.170;2024-01-11T13:39:41;28.43;;;16.07;;
5967;SDS011;3010;51.028;4.170;2024-01-11T13:42:07;24.73;;;15.60;;
5967;SDS011;3010;51.028;4.170;2024-01-11T13:44:34;32.20;;;21.35;;
5967;SDS011;3010;51.028;4.170;2024-01-11T13:47:01;27.30;;;18.00;;
5967;SDS011;3010;51.028;4.170;2024-01-11T13:49:27;31.33;;;19.73;;
5967;SDS011;3010;51.028;4.170;2024-01-11T13:51:54;29.97;;;18.60;;
5967;SDS011;3010;51.028;4.170;2024-01-11T13:54:20;32.65;;;22.75;;
5967;SDS011;3010;51.028;4.170;2024-01-11T13:56:47;32.93;;;18.70;;
5967;SDS011;3010;51.028;4.170;2024-01-11T13:59:13;32.20;;;22.73;;
5967;SDS011;3010;51.028;4.170;2024-01-11T14:01:40;24.87;;;14.70;;
5967;SDS011;3010;51.028;4.170;2024-01-11T14:04:07;23.20;;;12.90;;
5967;SDS011;3010;51.028;4.170;2024-01-11T14:06:33;28.80;;;15.30;;
5967;SDS011;3010;51.028;4.170;2024-01-11T14:09:00;28.27;;;15.80;;
5967;SDS011;3010;51.028;4.170;2024-01-11T14:11:26;28.67;;;15.87;;
5967;SDS011;3010;51.028;4.170;2024-01-11T14:13:56;30.87;;;17.43;;
5967;SDS011;3010;51.028;4.170;2024-01-11T14:16:22;33.30;;;20.65;;
5967;SDS011;3010;51.028;4.170;2024-01-11T14:18:49;35.67;;;21.83;;
5967;SDS011;3010;51.028;4.170;2024-01-11T14:21:15;30.60;;;19.47;;
5967;SDS011;3010;51.028;4.170;2024-01-11T14:23:42;34.03;;;18.83;;
5967;SDS011;3010;51.028;4.170;2024-01-11T14:26:08;31.30;;;16.97;;
5967;SDS011;3010;51.028;4.170;2024-01-11T14:28:35;25.23;;;15.50;;
5967;SDS011;3010;51.028;4.170;2024-01-11T14:31:02;27.33;;;17.90;;
5967;SDS011;3010;51.028;4.170;2024-01-11T14:33:28;29.07;;;17.73;;
5967;SDS011;3010;51.028;4.170;2024-01-11T14:35:55;29.30;;;15.73;;
5967;SDS011;3010;51.028;4.170;2024-01-11T14:38:21;27.97;;;16.00;;
5967;SDS011;3010;51.028;4.170;2024-01-11T14:40:48;30.67;;;16.80;;
5967;SDS011;3010;51.028;4.170;2024-01-11T14:43:15;44.70;;;25.47;;
5967;SDS011;3010;51.028;4.170;2024-01-11T14:45:41;56.50;;;26.30;;